Time;durP1;ratioP1;P1;durP2;ratioP2;P2;SDS_P1;SDS_P2;PMS_P1;PMS_P2;Temp;Humidity;BMP_temperature;BMP_pressure;BME280_temperature;BME280_humidity;BME280_pressure;Samples;Min_cycle;Max_cycle;Signal;HPM_P1;HPM_P2
2021/08/24 00:02:15;;;;;;;9.15;5.85;;;23.20;99.90;;;;;;5025517;28;20048;-66
2021/08/24 00:04:41;;;;;;;7.88;6.07;;;23.30;99.90;;;;;;5029234;28;20049;-67
2021/08/24 00:07:06;;;;;;;11.48;6.10;;;23.30;99.90;;;;;;5026306;28;20120;-67
2021/08/24 00:09:34;;;;;;;8.02;5.75;;;23.30;99.90;;;;;;5032401;28;20026;-67
2021/08/24 00:12:04;;;;;;;9.10;5.80;;;23.30;99.90;;;;;;5024142;28;20096;-67
2021/08/24 00:14:31;;;;;;;7.68;5.57;;;23.20;99.90;;;;;;5019288;28;20479;-67
2021/08/24 00:16:57;;;;;;;8.77;5.90;;;23.20;99.90;;;;;;5022860;28;20117;-67
2021/08/24 00:19:23;;;;;;;8.43;5.55;;;23.20;99.90;;;;;;5018684;28;20038;-66
2021/08/24 00:21:49;;;;;;;8.25;5.18;;;23.20;99.90;;;;;;5029078;28;20045;-67
2021/08/24 00:25:01;;;;;;;9.32;6.13;;;23.20;99.90;;;;;;5007529;28;20049;-67
2021/08/24 00:27:26;;;;;;;12.02;5.20;;;23.20;99.90;;;;;;4969127;28;20095;-67
2021/08/24 00:29:52;;;;;;;7.95;5.32;;;23.20;99.90;;;;;;5010731;28;20049;-67
2021/08/24 00:32:17;;;;;;;8.88;5.13;;;23.20;99.90;;;;;;5016590;28;20030;-67
2021/08/24 00:34:43;;;;;;;8.57;6.22;;;23.20;99.90;;;;;;5022605;28;20457;-67
2021/08/24 00:37:09;;;;;;;8.00;5.55;;;23.20;99.90;;;;;;5021307;28;20045;-66
2021/08/24 00:39:34;;;;;;;11.00;5.22;;;23.20;99.90;;;;;;5021933;28;20116;-66
2021/08/24 00:42:00;;;;;;;14.38;6.05;;;23.10;99.90;;;;;;5029407;28;20033;-66
2021/08/24 00:44:25;;;;;;;8.13;5.38;;;23.20;99.90;;;;;;5019252;28;20049;-65
2021/08/24 00:46:53;;;;;;;9.85;5.35;;;23.20;99.90;;;;;;5011512;28;20030;-67
2021/08/24 00:49:29;;;;;;;7.70;4.90;;;23.20;99.90;;;;;;5020871;28;20431;-67
2021/08/24 00:52:09;;;;;;;8.48;5.30;;;23.20;99.90;;;;;;5007064;28;20113;-66
2021/08/24 00:54:36;;;;;;;5.95;5.10;;;23.20;99.90;;;;;;4989464;28;20571;-66
2021/08/24 00:57:09;;;;;;;9.75;5.40;;;23.20;99.90;;;;;;5011037;28;20088;-66
2021/08/24 00:59:35;;;;;;;9.23;5.15;;;23.20;99.90;;;;;;5017812;28;20042;-67
2021/08/24 01:02:00;;;;;;;8.05;4.65;;;23.20;99.90;;;;;;5029442;28;20101;-65
2021/08/24 01:04:29;;;;;;;6.22;4.32;;;23.20;99.90;;;;;;5023292;28;20117;-65
2021/08/24 01:06:59;;;;;;;7.38;5.00;;;23.20;99.90;;;;;;5026189;28;20038;-67
2021/08/24 01:09:51;;;;;;;6.53;4.40;;;23.10;99.90;;;;;;5028971;28;20042;-66
2021/08/24 01:12:32;;;;;;;7.07;5.15;;;23.20;99.90;;;;;;4998893;28;20086;-67
2021/08/24 01:15:22;;;;;;;10.02;4.75;;;23.10;99.90;;;;;;5022916;28;20041;-66
2021/08/24 01:17:58;;;;;;;7.78;4.40;;;23.10;99.90;;;;;;5029104;28;20049;-66
2021/08/24 01:20:30;;;;;;;7.78;4.28;;;23.10;99.90;;;;;;5019642;28;20042;-66
2021/08/24 01:22:58;;;;;;;10.20;4.43;;;23.00;99.90;;;;;;5022481;28;20041;-64
2021/08/24 01:25:37;;;;;;;8.05;4.32;;;23.00;99.90;;;;;;5011190;28;20049;-67
2021/08/24 01:28:19;;;;;;;9.18;4.50;;;23.10;99.90;;;;;;4991732;28;20061;-66
2021/08/24 01:31:13;;;;;;;6.40;4.03;;;23.10;99.90;;;;;;5004915;28;20141;-67
2021/08/24 01:34:07;;;;;;;8.13;3.97;;;23.10;99.90;;;;;;4986606;28;20064;-67
2021/08/24 01:37:02;;;;;;;7.93;4.18;;;23.00;99.90;;;;;;4982788;28;20038;-67
2021/08/24 01:39:34;;;;;;;;;;;23.10;99.90;;;;;;5029004;28;20391;-66
2021/08/24 01:42:12;;;;;;;7.07;4.00;;;23.00;99.90;;;;;;5021205;28;20028;-67
2021/08/24 01:45:14;;;;;;;7.50;4.05;;;23.00;99.90;;;;;;5027591;28;20053;-67
2021/08/24 01:47:39;;;;;;;8.20;3.83;;;23.00;99.90;;;;;;4977416;28;20049;-66
2021/08/24 01:50:27;;;;;;;6.10;3.92;;;23.10;99.90;;;;;;5012325;28;20048;-66
2021/08/24 01:53:06;;;;;;;7.47;3.67;;;23.10;99.90;;;;;;5000445;28;20140;-66
2021/08/24 01:55:43;;;;;;;8.07;3.90;;;23.10;99.90;;;;;;5004842;28;20124;-66
2021/08/24 01:58:19;;;;;;;6.63;3.88;;;23.10;99.90;;;;;;5020601;28;20033;-66
2021/08/24 02:00:50;;;;;;;5.88;4.32;;;23.10;99.90;;;;;;5021453;28;20042;-66
2021/08/24 02:03:21;;;;;;;5.95;3.50;;;23.00;99.90;;;;;;5021826;28;20488;-66
2021/08/24 02:05:58;;;;;;;8.27;3.58;;;23.00;99.90;;;;;;5014677;28;20143;-66
2021/08/24 02:08:29;;;;;;;9.77;3.72;;;23.00;99.90;;;;;;5015142;28;20069;-66
2021/08/24 02:11:00;;;;;;;8.40;4.07;;;23.10;99.90;;;;;;5014304;28;20081;-65
2021/08/24 02:13:31;;;;;;;7.13;3.97;;;23.20;99.90;;;;;;5019671;28;20037;-66
2021/08/24 02:15:58;;;;;;;6.43;3.22;;;23.20;99.90;;;;;;5022790;28;20047;-63
2021/08/24 02:18:28;;;;;;;6.43;3.67;;;23.20;99.50;;;;;;5022214;28;20085;-66
2021/08/24 02:21:03;;;;;;;8.52;4.13;;;23.20;99.20;;;;;;5026831;28;20040;-66
2021/08/24 02:23:31;;;;;;;5.63;3.95;;;23.10;99.90;;;;;;5022542;28;20041;-61
2021/08/24 02:26:01;;;;;;;6.72;3.88;;;23.20;99.90;;;;;;5028074;28;20033;-66
2021/08/24 02:28:39;;;;;;;4.57;3.70;;;23.20;99.90;;;;;;5001852;28;20092;-67
2021/08/24 02:31:16;;;;;;;8.25;3.70;;;23.20;99.90;;;;;;5000947;28;20861;-66
2021/08/24 02:33:53;;;;;;;8.18;3.55;;;23.10;99.90;;;;;;5016115;28;20071;-66
2021/08/24 02:36:20;;;;;;;5.43;3.13;;;23.20;99.90;;;;;;5024210;28;20052;-67
2021/08/24 02:38:57;;;;;;;7.03;3.00;;;23.20;99.90;;;;;;5005589;28;20037;-66
2021/08/24 02:41:39;;;;;;;7.55;3.50;;;23.20;99.90;;;;;;5009251;28;20064;-66
2021/08/24 02:44:13;;;;;;;5.00;2.90;;;23.30;99.90;;;;;;4997491;28;20076;-66
2021/08/24 02:46:43;;;;;;;4.38;2.88;;;23.20;99.40;;;;;;5026438;28;20088;-66
2021/08/24 02:49:13;;;;;;;5.15;2.70;;;23.20;99.70;;;;;;5019536;28;20389;-66
2021/08/24 02:51:40;;;;;;;4.97;2.88;;;23.30;98.90;;;;;;5024368;28;20041;-66
2021/08/24 02:54:26;;;;;;;4.90;2.83;;;23.20;98.70;;;;;;5020117;28;20108;-66
2021/08/24 02:56:54;;;;;;;7.72;3.42;;;23.30;98.50;;;;;;5026218;28;20391;-66
2021/08/24 02:59:20;;;;;;;5.25;3.67;;;23.10;99.80;;;;;;5022491;28;20049;-66
2021/08/24 03:01:45;;;;;;;10.85;3.33;;;23.10;99.90;;;;;;5026494;28;20041;-66
2021/08/24 03:04:11;;;;;;;4.68;3.70;;;23.20;99.90;;;;;;5022812;28;20097;-66
2021/08/24 03:06:50;;;;;;;6.15;3.28;;;23.30;98.80;;;;;;5021800;28;20080;-66
2021/08/24 03:09:19;;;;;;;5.60;3.10;;;23.10;99.90;;;;;;5008168;28;20128;-67
2021/08/24 03:11:51;;;;;;;4.40;2.63;;;23.10;99.90;;;;;;5026765;28;20041;-66
2021/08/24 03:14:39;;;;;;;7.53;3.65;;;23.10;99.90;;;;;;5008815;28;20054;-67
2021/08/24 03:17:12;;;;;;;5.22;3.20;;;23.10;99.50;;;;;;4987652;28;20045;-66
2021/08/24 03:19:42;;;;;;;4.47;3.40;;;23.10;99.90;;;;;;5007753;28;20530;-66
2021/08/24 03:22:10;;;;;;;7.55;4.00;;;23.10;99.20;;;;;;5005913;28;20049;-65
2021/08/24 03:24:36;;;;;;;4.35;3.60;;;23.10;99.10;;;;;;5012504;28;20041;-66
2021/08/24 03:27:06;;;;;;;9.00;3.65;;;22.90;99.10;;;;;;5003906;28;20480;-65
2021/08/24 03:29:33;;;;;;;7.03;3.72;;;23.00;99.30;;;;;;5007788;28;20053;-66
2021/08/24 03:31:59;;;;;;;3.72;3.35;;;23.00;99.30;;;;;;5023519;28;20041;-66
2021/08/24 03:34:25;;;;;;;4.90;3.70;;;23.00;99.40;;;;;;5002256;28;20069;-66
2021/08/24 03:36:52;;;;;;;7.30;3.83;;;23.00;99.50;;;;;;5019233;28;20041;-66
2021/08/24 03:39:17;;;;;;;7.72;3.25;;;22.90;99.00;;;;;;5031132;28;20052;-68
2021/08/24 03:41:43;;;;;;;4.22;3.10;;;22.90;98.80;;;;;;5019985;28;20026;-65
2021/08/24 03:44:09;;;;;;;5.32;3.50;;;23.00;98.50;;;;;;5025313;28;20053;-66
2021/08/24 03:46:34;;;;;;;7.53;3.40;;;22.90;98.20;;;;;;5011855;28;20061;-67
2021/08/24 03:49:00;;;;;;;5.50;3.53;;;22.90;98.40;;;;;;5013024;28;20615;-65
2021/08/24 03:51:27;;;;;;;7.68;3.25;;;22.90;98.00;;;;;;5014964;28;20112;-66
2021/08/24 03:53:52;;;;;;;6.82;2.95;;;22.90;97.60;;;;;;5025657;28;20045;-66
2021/08/24 03:56:18;;;;;;;7.20;3.30;;;22.90;97.60;;;;;;5012839;28;20052;-66
2021/08/24 03:58:44;;;;;;;4.68;3.03;;;23.00;97.20;;;;;;5026476;28;20045;-67
2021/08/24 04:01:11;;;;;;;10.63;3.70;;;22.90;96.70;;;;;;5008131;28;20053;-67
2021/08/24 04:03:37;;;;;;;4.10;3.28;;;23.00;96.80;;;;;;5006109;28;20055;-66
2021/08/24 04:06:03;;;;;;;4.78;3.05;;;23.00;96.70;;;;;;5019532;28;20110;-65
2021/08/24 04:08:29;;;;;;;7.25;4.05;;;23.10;96.90;;;;;;5023090;28;20034;-66
2021/08/24 04:10:56;;;;;;;7.72;3.45;;;23.10;96.50;;;;;;5011609;28;20514;-66
2021/08/24 04:13:22;;;;;;;5.65;3.75;;;23.10;96.80;;;;;;5001624;28;20034;-66
2021/08/24 04:15:47;;;;;;;6.57;4.15;;;23.10;96.90;;;;;;5006684;28;20046;-68
2021/08/24 04:18:13;;;;;;;5.53;3.97;;;23.10;97.00;;;;;;5006488;28;20393;-65
2021/08/24 04:20:43;;;;;;;6.82;3.53;;;23.00;97.00;;;;;;5023600;28;20057;-65
2021/08/24 04:23:13;;;;;;;8.55;4.18;;;23.10;97.90;;;;;;5007508;28;20044;-66
2021/08/24 04:25:38;;;;;;;7.57;4.20;;;23.10;97.80;;;;;;5027075;28;20407;-66
2021/08/24 04:28:04;;;;;;;4.50;3.67;;;23.00;97.10;;;;;;5022943;28;20054;-66
2021/08/24 04:30:30;;;;;;;8.68;3.80;;;23.00;97.50;;;;;;5029635;28;20034;-61
2021/08/24 04:32:55;;;;;;;4.97;3.50;;;23.00;97.50;;;;;;5024556;28;20101;-67
2021/08/24 04:35:21;;;;;;;7.53;3.55;;;22.90;97.40;;;;;;5029735;28;20495;-66
2021/08/24 04:37:47;;;;;;;5.97;4.07;;;22.90;97.60;;;;;;5022683;28;20458;-66
2021/08/24 04:40:13;;;;;;;5.63;4.05;;;22.90;97.70;;;;;;5028745;28;20360;-66
2021/08/24 04:42:39;;;;;;;8.43;5.47;;;22.80;97.40;;;;;;5028359;28;20029;-65
2021/08/24 04:45:05;;;;;;;8.52;4.50;;;22.70;97.20;;;;;;5022829;28;20061;-66
2021/08/24 04:47:31;;;;;;;8.10;4.25;;;22.70;97.60;;;;;;5028219;28;20052;-65
2021/08/24 04:49:56;;;;;;;6.95;4.22;;;22.80;97.00;;;;;;5027116;28;20428;-66
2021/08/24 04:52:22;;;;;;;6.25;4.00;;;22.70;97.10;;;;;;5027411;28;20045;-66
2021/08/24 04:54:48;;;;;;;5.47;4.32;;;22.70;96.80;;;;;;5020601;28;20113;-66
2021/08/24 04:57:14;;;;;;;6.28;3.85;;;22.70;96.80;;;;;;5028681;28;20202;-66
2021/08/24 04:59:40;;;;;;;6.82;4.53;;;22.80;96.90;;;;;;5007771;28;20499;-66
2021/08/24 05:02:05;;;;;;;4.75;4.13;;;22.80;97.00;;;;;;5003726;28;20050;-66
2021/08/24 05:04:31;;;;;;;8.00;4.32;;;22.80;96.70;;;;;;5024096;28;20404;-66
2021/08/24 05:06:56;;;;;;;5.32;4.13;;;22.80;96.60;;;;;;5028608;28;20041;-66
2021/08/24 05:09:22;;;;;;;6.07;3.92;;;22.80;96.70;;;;;;5026489;28;20033;-66
2021/08/24 05:11:48;;;;;;;3.97;3.58;;;22.90;96.20;;;;;;5023349;28;20145;-67
2021/08/24 05:14:13;;;;;;;8.23;3.85;;;22.90;95.90;;;;;;5022981;28;21963;-67
2021/08/24 05:16:40;;;;;;;5.88;2.80;;;22.80;95.40;;;;;;5021145;28;20064;-67
2021/08/24 05:19:07;;;;;;;5.80;3.40;;;22.90;95.70;;;;;;5025819;28;20038;-67
2021/08/24 05:21:36;;;;;;;5.43;3.15;;;23.00;95.10;;;;;;5027762;28;20030;-66
2021/08/24 05:24:03;;;;;;;3.78;2.95;;;23.00;94.50;;;;;;5019738;28;20045;-66
2021/08/24 05:26:28;;;;;;;4.32;2.80;;;23.10;94.70;;;;;;5024594;28;20041;-67
2021/08/24 05:28:54;;;;;;;4.85;2.92;;;23.10;94.60;;;;;;5010568;28;20489;-68
2021/08/24 05:31:20;;;;;;;6.07;3.22;;;23.20;94.70;;;;;;5024419;28;20368;-67
2021/08/24 05:33:45;;;;;;;5.10;2.78;;;23.20;94.60;;;;;;5028611;28;20455;-67
2021/08/24 05:36:12;;;;;;;6.35;2.80;;;23.20;94.40;;;;;;5026255;28;20048;-67
2021/08/24 05:38:39;;;;;;;5.93;3.05;;;23.30;94.20;;;;;;5026383;28;20402;-67
2021/08/24 05:41:05;;;;;;;5.93;3.13;;;23.30;93.90;;;;;;5005308;28;20038;-67
2021/08/24 05:43:31;;;;;;;6.30;2.85;;;23.20;93.00;;;;;;5008328;28;20065;-66
2021/08/24 05:46:06;;;;;;;6.07;3.03;;;23.10;94.30;;;;;;5006706;28;20086;-67
2021/08/24 05:48:33;;;;;;;11.48;3.92;;;23.10;94.00;;;;;;5010510;28;20037;-67
2021/08/24 05:50:59;;;;;;;4.50;2.70;;;23.10;94.30;;;;;;5019034;28;20046;-66
2021/08/24 05:53:25;;;;;;;5.18;3.03;;;23.10;93.30;;;;;;5010846;28;20041;-66
2021/08/24 05:55:51;;;;;;;4.60;3.33;;;23.10;93.90;;;;;;5006171;28;20045;-66
2021/08/24 05:58:17;;;;;;;8.23;2.65;;;23.10;93.90;;;;;;5030071;28;20026;-66
2021/08/24 06:00:43;;;;;;;7.32;2.65;;;23.20;94.00;;;;;;5016655;28;20050;-67
2021/08/24 06:03:09;;;;;;;6.10;2.63;;;23.30;93.30;;;;;;5003406;28;20092;-66
2021/08/24 06:05:42;;;;;;;5.05;2.78;;;23.40;93.10;;;;;;5022097;28;20099;-67
2021/08/24 06:08:08;;;;;;;5.78;3.20;;;23.60;93.00;;;;;;5023666;28;20041;-67
2021/08/24 06:10:38;;;;;;;6.20;3.28;;;23.70;92.40;;;;;;5028887;28;20056;-68
2021/08/24 06:13:04;;;;;;;4.93;2.72;;;23.70;92.10;;;;;;5021552;28;20040;-66
2021/08/24 06:15:30;;;;;;;4.35;2.70;;;23.70;92.20;;;;;;5023303;28;20125;-63
2021/08/24 06:17:56;;;;;;;6.45;3.22;;;23.80;92.00;;;;;;5007298;28;20117;-67
2021/08/24 06:20:21;;;;;;;5.57;2.88;;;23.70;91.30;;;;;;5023841;28;20056;-67
2021/08/24 06:22:47;;;;;;;5.55;3.33;;;23.70;91.60;;;;;;5021762;28;20037;-67
2021/08/24 06:25:13;;;;;;;6.32;2.55;;;23.80;91.60;;;;;;5026385;28;20388;-67
2021/08/24 06:27:38;;;;;;;5.50;2.85;;;23.90;91.60;;;;;;5031688;28;20040;-67
2021/08/24 06:30:04;;;;;;;2.95;2.28;;;23.80;91.20;;;;;;5026872;28;20478;-66
2021/08/24 06:32:34;;;;;;;6.10;2.97;;;23.80;91.30;;;;;;5009993;28;20034;-67
2021/08/24 06:35:00;;;;;;;6.38;3.17;;;23.90;91.50;;;;;;5024467;28;20451;-66
2021/08/24 06:37:26;;;;;;;6.72;2.92;;;24.00;91.10;;;;;;5014330;28;20127;-66
2021/08/24 06:39:52;;;;;;;9.00;3.17;;;24.10;91.00;;;;;;5026377;28;20073;-67
2021/08/24 06:42:18;;;;;;;7.18;3.08;;;24.10;90.90;;;;;;5023231;28;20073;-66
2021/08/24 06:44:43;;;;;;;5.93;2.88;;;24.10;90.60;;;;;;5023345;28;20037;-66
2021/08/24 06:47:09;;;;;;;8.35;2.95;;;24.20;90.50;;;;;;5026354;28;20037;-66
2021/08/24 06:49:35;;;;;;;5.82;2.40;;;24.30;89.40;;;;;;5022328;28;20041;-66
2021/08/24 06:52:04;;;;;;;7.28;2.50;;;24.30;90.10;;;;;;5033158;28;20076;-66
2021/08/24 06:54:30;;;;;;;3.15;2.28;;;24.30;90.00;;;;;;5020401;28;20099;-67
2021/08/24 06:56:57;;;;;;;4.82;2.42;;;24.30;89.40;;;;;;5026260;28;20039;-67
2021/08/24 06:59:23;;;;;;;6.50;2.40;;;24.40;87.70;;;;;;5024534;28;20092;-67
2021/08/24 07:01:49;;;;;;;5.00;2.33;;;24.30;87.70;;;;;;5025891;28;20456;-66
2021/08/24 07:04:14;;;;;;;5.90;2.10;;;24.30;88.20;;;;;;5020549;28;20065;-66
2021/08/24 07:06:40;;;;;;;3.20;2.40;;;24.10;87.20;;;;;;5026780;28;20462;-66
2021/08/24 07:09:06;;;;;;;4.65;2.28;;;24.20;88.20;;;;;;5019471;28;20072;-66
2021/08/24 07:11:32;;;;;;;4.88;2.40;;;24.20;86.90;;;;;;5025608;28;20045;-61
2021/08/24 07:13:59;;;;;;;3.83;2.05;;;24.40;87.50;;;;;;5022498;28;20537;-67
2021/08/24 07:16:25;;;;;;;6.28;2.63;;;24.40;87.10;;;;;;5018828;28;20099;-67
2021/08/24 07:18:53;;;;;;;7.05;2.20;;;24.40;86.10;;;;;;4988933;28;20072;-67
2021/08/24 07:21:19;;;;;;;5.82;2.40;;;24.40;86.40;;;;;;5031679;28;20495;-66
2021/08/24 07:23:46;;;;;;;6.75;2.13;;;24.40;86.60;;;;;;5028024;28;20038;-67
2021/08/24 07:26:14;;;;;;;9.05;2.35;;;24.40;85.70;;;;;;5023621;28;20132;-67
2021/08/24 07:28:40;;;;;;;1.92;1.70;;;24.60;86.20;;;;;;5027795;28;20448;-67
2021/08/24 07:31:06;;;;;;;4.03;2.00;;;24.60;84.50;;;;;;5006467;28;20132;-67
2021/08/24 07:33:32;;;;;;;3.20;1.83;;;24.80;83.60;;;;;;5024468;28;20133;-64
2021/08/24 07:35:58;;;;;;;2.10;1.65;;;24.80;82.40;;;;;;5024721;28;20438;-67
2021/08/24 07:38:25;;;;;;;3.13;1.75;;;25.00;83.00;;;;;;5015392;28;20071;-67
2021/08/24 07:40:51;;;;;;;6.88;2.20;;;25.10;83.10;;;;;;5017818;28;20116;-67
2021/08/24 07:43:18;;;;;;;3.47;2.00;;;25.10;82.00;;;;;;5026636;28;20432;-67
2021/08/24 07:45:45;;;;;;;5.00;1.90;;;25.20;83.00;;;;;;5022675;28;20040;-67
2021/08/24 07:48:11;;;;;;;4.25;1.98;;;25.30;82.50;;;;;;5016965;28;20129;-67
2021/08/24 07:50:37;;;;;;;6.47;2.60;;;25.40;81.80;;;;;;5022376;28;20128;-66
2021/08/24 07:53:03;;;;;;;5.47;2.05;;;25.30;81.90;;;;;;5026959;28;20036;-66
2021/08/24 07:55:29;;;;;;;4.25;2.30;;;25.20;81.90;;;;;;5022338;28;20045;-67
2021/08/24 07:57:54;;;;;;;5.00;2.55;;;25.30;81.80;;;;;;5010571;28;20037;-67
2021/08/24 08:00:20;;;;;;;6.78;2.13;;;25.10;80.20;;;;;;5021579;28;20053;-67
2021/08/24 08:02:46;;;;;;;5.40;2.53;;;25.30;80.80;;;;;;5022949;28;20038;-67
2021/08/24 08:05:11;;;;;;;2.80;2.00;;;25.40;80.20;;;;;;5015141;28;20060;-65
2021/08/24 08:07:38;;;;;;;4.07;2.47;;;25.50;80.60;;;;;;5024126;28;20046;-65
2021/08/24 08:10:04;;;;;;;6.63;2.80;;;25.50;80.30;;;;;;5031286;28;20029;-67
2021/08/24 08:12:30;;;;;;;5.13;2.55;;;25.50;78.70;;;;;;5026607;28;20103;-66
2021/08/24 08:14:56;;;;;;;7.63;2.65;;;25.40;80.10;;;;;;5022756;28;20036;-66
2021/08/24 08:17:23;;;;;;;3.83;2.40;;;25.40;80.20;;;;;;5018640;28;20049;-66
2021/08/24 08:19:49;;;;;;;6.50;1.95;;;25.50;79.80;;;;;;5026525;28;20037;-66
2021/08/24 08:22:15;;;;;;;2.85;2.05;;;25.70;79.60;;;;;;5022934;28;20048;-66
2021/08/24 08:24:41;;;;;;;4.95;2.60;;;25.80;78.90;;;;;;5023941;28;20045;-66
2021/08/24 08:27:06;;;;;;;5.00;2.53;;;25.70;79.10;;;;;;5022670;28;20053;-66
2021/08/24 08:29:32;;;;;;;7.63;3.03;;;25.40;78.10;;;;;;5023596;28;20037;-65
2021/08/24 08:32:04;;;;;;;7.50;2.60;;;25.40;79.20;;;;;;5025699;28;20459;-67
2021/08/24 08:34:30;;;;;;;5.30;2.58;;;25.50;79.60;;;;;;5007623;28;20030;-67
2021/08/24 08:36:55;;;;;;;6.10;2.63;;;25.30;78.60;;;;;;5002417;28;20042;-67
2021/08/24 08:39:21;;;;;;;6.93;3.13;;;25.40;79.00;;;;;;5012204;28;20980;-67
2021/08/24 08:42:21;;;;;;;3.15;2.72;;;25.40;79.10;;;;;;5016667;28;20052;-67
2021/08/24 08:45:04;;;;;;;3.15;2.55;;;25.40;77.80;;;;;;4987337;28;20049;-67
2021/08/24 08:47:53;;;;;;;8.13;2.40;;;25.40;78.30;;;;;;5006662;28;20049;-67
2021/08/24 08:50:32;;;;;;;5.43;2.38;;;25.50;78.20;;;;;;4989269;28;20048;-67
2021/08/24 08:53:22;;;;;;;6.47;2.15;;;25.60;77.50;;;;;;5015991;28;20052;-67
2021/08/24 08:55:54;;;;;;;4.28;2.83;;;25.60;76.30;;;;;;4994410;28;20034;-67
2021/08/24 08:58:58;;;;;;;4.65;2.53;;;25.50;78.20;;;;;;5015745;28;20045;-68
2021/08/24 09:01:37;;;;;;;4.30;2.40;;;25.60;75.90;;;;;;4916622;28;20056;-68
2021/08/24 09:04:28;;;;;;;4.18;2.38;;;25.80;75.80;;;;;;5003174;28;20133;-67
2021/08/24 09:06:57;;;;;;;4.15;2.00;;;25.80;72.20;;;;;;5013076;28;20069;-67
2021/08/24 09:09:24;;;;;;;3.15;2.53;;;25.90;73.70;;;;;;4995261;28;20038;-68
2021/08/24 09:11:51;;;;;;;6.22;2.67;;;26.00;73.30;;;;;;5001179;28;20046;-68
2021/08/24 09:14:24;;;;;;;5.38;2.72;;;26.00;72.00;;;;;;4996384;28;20125;-67
2021/08/24 09:16:58;;;;;;;7.40;2.47;;;26.10;68.80;;;;;;5005706;28;20038;-67
2021/08/24 09:19:37;;;;;;;5.68;2.28;;;26.30;70.10;;;;;;5012414;28;20038;-67
2021/08/24 09:22:05;;;;;;;6.30;2.03;;;26.70;66.90;;;;;;5024660;28;20123;-66
2021/08/24 09:24:32;;;;;;;4.03;2.70;;;27.10;66.30;;;;;;5021653;28;20094;-64
2021/08/24 09:27:06;;;;;;;3.90;2.35;;;27.00;66.60;;;;;;5022719;28;20045;-64
2021/08/24 09:29:41;;;;;;;;;;;27.20;66.60;;;;;;5004962;28;20029;-61
2021/08/24 09:32:09;;;;;;;4.95;2.65;;;27.20;65.10;;;;;;5009084;28;19917;-63
2021/08/24 09:34:44;;;;;;;5.95;3.20;;;27.40;64.10;;;;;;5020648;28;20495;-66
2021/08/24 09:37:15;;;;;;;4.82;2.67;;;27.30;64.10;;;;;;5012814;28;20073;-67
2021/08/24 09:39:53;;;;;;;5.93;2.63;;;27.40;65.60;;;;;;4997342;28;20057;-67
2021/08/24 09:42:30;;;;;;;4.57;2.65;;;27.50;63.80;;;;;;5006102;28;20046;-67
2021/08/24 09:45:00;;;;;;;6.90;2.58;;;27.70;66.50;;;;;;5000963;28;20504;-67
2021/08/24 09:47:26;;;;;;;3.70;2.53;;;27.90;71.00;;;;;;5026517;28;20037;-67
2021/08/24 09:50:04;;;;;;;4.28;2.22;;;28.00;70.40;;;;;;4991979;28;20531;-67
2021/08/24 09:52:35;;;;;;;5.10;2.15;;;28.00;64.00;;;;;;5020438;28;20029;-67
2021/08/24 09:55:06;;;;;;;3.38;1.80;;;28.20;64.70;;;;;;4991260;28;20428;-67
2021/08/24 09:57:47;;;;;;;4.03;2.38;;;28.30;60.80;;;;;;5008737;28;20041;-67
2021/08/24 10:00:19;;;;;;;4.32;2.42;;;28.30;59.30;;;;;;4976705;28;20076;-67
2021/08/24 10:02:47;;;;;;;5.53;3.25;;;28.20;59.70;;;;;;5010806;28;20173;-66
2021/08/24 10:05:16;;;;;;;4.32;2.47;;;28.20;58.50;;;;;;5008070;28;20049;-67
2021/08/24 10:07:44;;;;;;;3.30;2.20;;;28.30;59.30;;;;;;5021749;28;20057;-67
2021/08/24 10:10:35;;;;;;;7.13;2.35;;;28.30;58.20;;;;;;5024377;28;20029;-66
2021/08/24 10:13:46;;;;;;;4.38;2.03;;;28.40;56.70;;;;;;5021909;28;20040;-66
2021/08/24 10:16:21;;;;;;;7.68;3.33;;;28.30;55.70;;;;;;4969173;28;20034;-66
2021/08/24 10:18:51;;;;;;;5.53;2.70;;;28.60;57.80;;;;;;5024149;28;20129;-67
2021/08/24 10:21:44;;;;;;;6.97;3.05;;;28.50;56.80;;;;;;4978871;28;20042;-67
2021/08/24 10:24:14;;;;;;;7.07;2.63;;;28.50;56.00;;;;;;4974980;28;20415;-67
2021/08/24 10:26:41;;;;;;;6.20;2.20;;;28.60;55.80;;;;;;5021627;28;20037;-66
2021/08/24 10:29:13;;;;;;;3.08;1.90;;;28.60;55.40;;;;;;5016899;28;20037;-67
2021/08/24 10:31:50;;;;;;;4.03;2.08;;;28.60;53.10;;;;;;5010250;28;20448;-66
2021/08/24 10:34:48;;;;;;;3.08;2.35;;;28.60;54.10;;;;;;5011307;28;20044;-67
2021/08/24 10:37:26;;;;;;;2.88;1.92;;;28.50;52.10;;;;;;4989318;28;20041;-66
2021/08/24 10:40:16;;;;;;;5.75;1.60;;;28.40;52.70;;;;;;5006743;28;20041;-65
2021/08/24 10:43:01;;;;;;;2.53;1.80;;;28.50;53.00;;;;;;4978098;28;20034;-67
2021/08/24 10:45:33;;;;;;;7.53;2.53;;;28.50;50.10;;;;;;5025000;28;20048;-67
2021/08/24 10:48:02;;;;;;;5.72;2.70;;;28.30;52.10;;;;;;5018484;28;20050;-68
2021/08/24 10:50:48;;;;;;;4.47;1.92;;;28.60;52.70;;;;;;5005961;28;20048;-66
2021/08/24 10:53:20;;;;;;;2.92;1.90;;;28.60;54.00;;;;;;4986778;28;20411;-65
2021/08/24 10:55:56;;;;;;;5.97;2.47;;;28.70;54.10;;;;;;5006392;28;20099;-65
2021/08/24 10:58:36;;;;;;;4.13;2.35;;;28.70;52.90;;;;;;5011660;28;20041;-65
2021/08/24 11:01:22;;;;;;;4.00;1.88;;;28.90;51.20;;;;;;5012982;28;20491;-65
2021/08/24 11:04:36;;;;;;;5.38;2.28;;;28.90;52.80;;;;;;4984156;28;20092;-65
2021/08/24 11:07:23;;;;;;;2.65;1.48;;;29.10;52.00;;;;;;4971364;28;20542;-66
2021/08/24 11:09:57;;;;;;;2.42;2.00;;;28.90;51.60;;;;;;4973248;28;20458;-65
2021/08/24 11:12:47;;;;;;;4.93;1.80;;;28.70;52.20;;;;;;4996864;28;20033;-65
2021/08/24 11:15:49;;;;;;;6.40;2.13;;;28.80;53.80;;;;;;4979841;28;20175;-65
2021/08/24 11:18:31;;;;;;;4.30;2.15;;;28.80;53.90;;;;;;4973410;28;20041;-65
2021/08/24 11:21:16;;;;;;;2.33;2.13;;;29.00;56.20;;;;;;4998476;28;20389;-65
2021/08/24 11:23:44;;;;;;;4.70;1.90;;;29.00;59.40;;;;;;4988559;28;20045;-64
2021/08/24 11:26:32;;;;;;;3.30;2.15;;;29.20;51.90;;;;;;5019380;28;20128;-64
2021/08/24 11:28:57;;;;;;;2.67;2.20;;;29.40;50.50;;;;;;5018924;28;20042;-64
2021/08/24 11:31:26;;;;;;;2.15;1.92;;;29.40;52.00;;;;;;5022623;28;20111;-64
2021/08/24 11:34:24;;;;;;;2.45;2.20;;;29.50;49.20;;;;;;5017765;28;20045;-64
2021/08/24 11:36:49;;;;;;;1.90;1.70;;;29.40;40.70;;;;;;4995281;28;20112;-63
2021/08/24 11:39:20;;;;;;;3.25;2.30;;;29.50;42.60;;;;;;5018748;28;20055;-63
2021/08/24 11:41:49;;;;;;;3.85;2.42;;;29.80;40.10;;;;;;5022385;28;20156;-62
2021/08/24 11:44:18;;;;;;;3.40;2.13;;;;;;;;;;4993995;28;20062;-64
2021/08/24 11:46:54;;;;;;;6.95;1.90;;;31.20;35.90;;;;;;5021117;28;20050;-63
2021/08/24 11:49:25;;;;;;;4.93;2.10;;;33.00;33.60;;;;;;5018942;28;20045;-64
2021/08/24 11:52:04;;;;;;;1.80;1.67;;;35.70;28.60;;;;;;5023431;28;20048;-63
2021/08/24 11:55:09;;;;;;;6.18;2.30;;;37.40;25.00;;;;;;5021679;28;20187;-64
2021/08/24 11:57:49;;;;;;;4.38;2.03;;;39.70;22.60;;;;;;4934856;28;20281;-62
2021/08/24 12:00:17;;;;;;;4.43;2.30;;;40.10;23.20;;;;;;4998892;28;20148;-63
2021/08/24 12:02:50;;;;;;;2.92;2.00;;;40.50;24.60;;;;;;5005477;28;20037;-63
2021/08/24 12:05:21;;;;;;;;;;;40.60;20.10;;;;;;4997612;28;20168;-63
2021/08/24 12:07:58;;;;;;;4.72;2.40;;;37.50;21.90;;;;;;5005156;28;19936;-64
2021/08/24 12:10:25;;;;;;;3.67;2.03;;;35.60;25.40;;;;;;4998827;28;20923;-64
2021/08/24 12:13:04;;;;;;;3.70;2.70;;;35.70;26.60;;;;;;5017472;28;20497;-64
2021/08/24 12:15:35;;;;;;;3.75;2.80;;;35.90;25.60;;;;;;5018343;28;20041;-65
2021/08/24 12:18:19;;;;;;;3.88;2.75;;;35.80;25.50;;;;;;5020233;28;20033;-65
2021/08/24 12:20:51;;;;;;;4.43;2.50;;;35.20;25.50;;;;;;4984347;28;20509;-65
2021/08/24 12:23:39;;;;;;;3.33;2.30;;;36.40;25.60;;;;;;5009135;28;20042;-64
2021/08/24 12:26:33;;;;;;;2.85;2.50;;;35.90;24.80;;;;;;5019497;28;20503;-65
2021/08/24 12:29:06;;;;;;;;;;;35.60;24.70;;;;;;4998065;28;20045;-65
2021/08/24 12:31:41;;;;;;;3.67;2.67;;;34.40;25.90;;;;;;5015332;28;19921;-65
2021/08/24 12:34:34;;;;;;;7.18;2.90;;;34.10;26.70;;;;;;5007844;28;20072;-63
2021/08/24 12:37:22;;;;;;;4.67;2.70;;;35.50;26.60;;;;;;5019134;28;20714;-64
2021/08/24 12:39:56;;;;;;;4.22;2.00;;;36.90;24.40;;;;;;4974418;28;20265;-64
2021/08/24 12:42:48;;;;;;;4.10;2.28;;;36.80;24.10;;;;;;4993129;28;20038;-65
2021/08/24 12:45:21;;;;;;;4.00;2.65;;;37.00;26.80;;;;;;4968439;28;20037;-64
2021/08/24 12:48:04;;;;;;;4.75;3.25;;;36.10;28.20;;;;;;5017035;28;20108;-64
2021/08/24 12:50:33;;;;;;;3.20;2.78;;;36.30;29.00;;;;;;5022371;28;20977;-65
2021/08/24 12:53:24;;;;;;;4.90;2.50;;;37.80;22.20;;;;;;5002763;28;20041;-65
2021/08/24 12:55:50;;;;;;;3.15;2.67;;;39.10;21.00;;;;;;4983042;28;20037;-65
2021/08/24 12:58:31;;;;;;;4.53;3.10;;;40.60;21.10;;;;;;4997819;28;20042;-65
2021/08/24 13:01:15;;;;;;;2.38;2.17;;;40.40;19.50;;;;;;5001742;28;20049;-65
2021/08/24 13:03:52;;;;;;;;;;;39.20;20.00;;;;;;4963346;28;20156;-65
2021/08/24 13:06:22;;;;;;;5.25;2.72;;;39.80;18.20;;;;;;5021435;28;19917;-65
2021/08/24 13:09:09;;;;;;;2.22;2.13;;;39.70;18.80;;;;;;5017628;28;20531;-66
2021/08/24 13:11:39;;;;;;;5.05;2.88;;;38.70;19.50;;;;;;4978340;28;20034;-66
2021/08/24 13:14:06;;;;;;;8.70;2.83;;;38.10;20.20;;;;;;5004339;28;20049;-65